createdAt,value
2023-02-01T00:01:19.931Z,19.71
2023-02-01T00:03:46.351Z,19.69
2023-02-01T00:06:13.052Z,19.68
2023-02-01T00:08:39.426Z,19.68
2023-02-01T00:11:07.142Z,19.65
2023-02-01T00:13:34.373Z,19.64
2023-02-01T00:16:05.274Z,19.63
2023-02-01T00:18:31.712Z,19.62
2023-02-01T00:20:59.245Z,19.62
2023-02-01T00:23:25.724Z,19.60
2023-02-01T00:25:52.141Z,19.60
2023-02-01T00:28:18.522Z,19.58
2023-02-01T00:30:45.115Z,19.58
2023-02-01T00:33:11.552Z,19.58
2023-02-01T00:35:37.930Z,19.58
2023-02-01T00:38:04.354Z,19.57
2023-02-01T00:40:30.700Z,19.57
2023-02-01T00:42:58.804Z,19.57
2023-02-01T00:45:25.310Z,19.57
2023-02-01T00:47:51.716Z,19.58
2023-02-01T00:50:18.233Z,19.59
2023-02-01T00:52:44.577Z,19.58
2023-02-01T00:55:10.947Z,19.59
2023-02-01T00:57:37.386Z,19.59
2023-02-01T01:00:04.451Z,19.60
2023-02-01T01:02:30.855Z,19.59
2023-02-01T01:04:57.273Z,19.58
2023-02-01T01:07:23.678Z,19.58
2023-02-01T01:09:50.051Z,19.57
2023-02-01T01:12:16.459Z,19.57
2023-02-01T01:14:42.876Z,19.57
2023-02-01T01:17:09.309Z,19.56
2023-02-01T01:19:35.707Z,19.56
2023-02-01T01:22:02.117Z,19.54
2023-02-01T01:24:28.531Z,19.55
2023-02-01T01:26:54.914Z,19.56
2023-02-01T01:29:21.338Z,19.58
2023-02-01T01:31:47.797Z,19.57
2023-02-01T01:34:14.547Z,19.59
2023-02-01T01:36:41.043Z,19.59
2023-02-01T01:39:08.638Z,19.62
2023-02-01T01:41:35.143Z,19.63
2023-02-01T01:44:02.840Z,19.62
2023-02-01T01:46:33.365Z,19.63
2023-02-01T01:49:11.479Z,19.62
2023-02-01T01:51:58.109Z,19.64
2023-02-01T01:54:26.781Z,19.64
2023-02-01T01:56:56.509Z,19.64
2023-02-01T01:59:24.130Z,19.67
2023-02-01T02:01:50.726Z,19.68
2023-02-01T02:04:17.371Z,19.69
2023-02-01T02:06:49.087Z,19.71
2023-02-01T02:09:15.991Z,19.72
2023-02-01T02:11:42.387Z,19.73
2023-02-01T02:14:10.360Z,19.74
2023-02-01T02:16:55.455Z,19.74
2023-02-01T02:19:33.278Z,19.73
2023-02-01T02:22:23.964Z,19.73
2023-02-01T02:24:59.540Z,19.72
2023-02-01T02:27:44.718Z,19.72
2023-02-01T02:30:29.654Z,19.70
2023-02-01T02:33:02.006Z,19.71
2023-02-01T02:35:48.165Z,19.72
2023-02-01T02:38:33.742Z,19.70
2023-02-01T02:41:02.859Z,19.70
2023-02-01T02:44:09.961Z,19.70
2023-02-01T02:47:06.190Z,19.69
2023-02-01T02:49:35.461Z,19.68
2023-02-01T02:52:31.927Z,19.67
2023-02-01T02:54:59.786Z,19.67
2023-02-01T02:57:44.853Z,19.68
2023-02-01T03:00:36.339Z,19.67
2023-02-01T03:03:21.666Z,19.67
2023-02-01T03:05:51.538Z,19.67
2023-02-01T03:08:24.918Z,19.67
2023-02-01T03:10:51.318Z,19.65
2023-02-01T03:13:23.691Z,19.67
2023-02-01T03:15:50.050Z,19.68
2023-02-01T03:18:21.163Z,19.68
2023-02-01T03:20:49.730Z,19.69
2023-02-01T03:23:19.413Z,19.68
2023-02-01T03:25:48.472Z,19.68
2023-02-01T03:28:16.567Z,19.67
2023-02-01T03:30:43.930Z,19.65
2023-02-01T03:33:21.927Z,19.65
2023-02-01T03:36:00.556Z,19.63
2023-02-01T03:38:31.761Z,19.66
2023-02-01T03:41:19.047Z,19.65
2023-02-01T03:43:48.560Z,19.65
2023-02-01T03:46:18.893Z,19.67
2023-02-01T03:48:45.663Z,19.68
2023-02-01T03:51:12.959Z,19.67
2023-02-01T03:53:40.963Z,19.67
2023-02-01T03:56:07.700Z,19.68
2023-02-01T03:58:34.256Z,19.68
2023-02-01T04:01:00.959Z,19.68
2023-02-01T04:03:28.111Z,19.69
2023-02-01T04:05:55.027Z,19.69
2023-02-01T04:08:21.708Z,19.70
2023-02-01T04:10:48.450Z,19.70
2023-02-01T04:13:14.890Z,19.70
2023-02-01T04:15:41.359Z,19.70
2023-02-01T04:18:07.870Z,19.70
2023-02-01T04:20:34.333Z,19.70
2023-02-01T04:23:03.398Z,19.68
2023-02-01T04:25:30.257Z,19.69
2023-02-01T04:27:56.748Z,19.67
2023-02-01T04:30:25.073Z,19.68
2023-02-01T04:32:51.696Z,19.67
2023-02-01T04:35:19.105Z,19.68
2023-02-01T04:37:45.630Z,19.68
2023-02-01T04:40:12.405Z,19.69
2023-02-01T04:42:38.825Z,19.69
2023-02-01T04:45:05.522Z,19.69
2023-02-01T04:47:31.960Z,19.68
2023-02-01T04:49:58.356Z,19.67
2023-02-01T04:52:24.757Z,19.67
2023-02-01T04:54:51.176Z,19.68
2023-02-01T04:57:17.562Z,19.68
2023-02-01T04:59:44.046Z,19.69
2023-02-01T05:02:10.521Z,19.69
2023-02-01T05:04:36.991Z,19.70
2023-02-01T05:07:03.447Z,19.68
2023-02-01T05:09:29.849Z,19.68
2023-02-01T05:12:15.009Z,19.68
2023-02-01T05:14:41.375Z,19.68
2023-02-01T05:17:07.738Z,19.67
2023-02-01T05:19:34.170Z,19.67
2023-02-01T05:22:00.615Z,19.68
2023-02-01T05:24:28.093Z,19.67
2023-02-01T05:26:54.649Z,19.67
2023-02-01T05:29:21.074Z,19.66
2023-02-01T05:31:48.086Z,19.67
2023-02-01T05:34:15.620Z,19.68
2023-02-01T05:36:42.204Z,19.67
2023-02-01T05:39:08.618Z,19.68
2023-02-01T05:41:35.099Z,19.68
2023-02-01T05:44:01.477Z,19.68
2023-02-01T05:46:28.023Z,19.70
2023-02-01T05:48:54.525Z,19.69
2023-02-01T05:51:20.966Z,19.68
2023-02-01T05:53:47.343Z,19.68
2023-02-01T05:56:13.682Z,19.68
2023-02-01T05:58:40.078Z,19.70
2023-02-01T06:01:06.723Z,19.69
2023-02-01T06:03:33.270Z,19.70
2023-02-01T06:06:01.995Z,19.70
2023-02-01T06:08:28.617Z,19.71
2023-02-01T06:10:58.860Z,19.71
2023-02-01T06:13:25.258Z,19.71
2023-02-01T06:15:52.297Z,19.70
2023-02-01T06:18:19.053Z,19.70
2023-02-01T06:20:45.479Z,19.69
2023-02-01T06:23:11.962Z,19.72
2023-02-01T06:25:38.789Z,19.72
2023-02-01T06:28:06.803Z,19.74
2023-02-01T06:30:33.221Z,19.75
2023-02-01T06:32:59.568Z,19.74
2023-02-01T06:35:27.607Z,19.75
2023-02-01T06:37:54.081Z,19.77
2023-02-01T06:40:20.611Z,19.77
2023-02-01T06:42:49.046Z,19.78
2023-02-01T06:45:15.446Z,19.78
2023-02-01T06:47:43.278Z,19.77
2023-02-01T06:50:10.035Z,19.78
2023-02-01T06:52:36.711Z,19.78
2023-02-01T06:55:03.202Z,19.78
2023-02-01T06:57:31.763Z,19.76
2023-02-01T06:59:58.201Z,19.76
2023-02-01T07:02:24.667Z,19.76
2023-02-01T07:04:51.172Z,19.74
2023-02-01T07:07:17.894Z,19.74
2023-02-01T07:09:44.398Z,19.73
2023-02-01T07:12:10.842Z,19.73
2023-02-01T07:14:37.292Z,19.73
2023-02-01T07:17:03.666Z,19.73
2023-02-01T07:19:30.093Z,19.73
2023-02-01T07:21:56.515Z,19.73
2023-02-01T07:24:23.096Z,19.72
2023-02-01T07:26:52.037Z,19.69
2023-02-01T07:29:19.341Z,19.68
2023-02-01T07:31:45.832Z,19.69
2023-02-01T07:34:12.273Z,19.69
2023-02-01T07:36:39.538Z,19.69
2023-02-01T07:39:05.998Z,19.69
2023-02-01T07:41:32.641Z,19.69
2023-02-01T07:43:59.051Z,19.71
2023-02-01T07:46:25.462Z,19.71
2023-02-01T07:48:53.783Z,19.72
2023-02-01T07:51:20.207Z,19.73
2023-02-01T07:53:46.769Z,19.72
2023-02-01T07:56:14.509Z,19.72
2023-02-01T07:58:41.326Z,19.71
2023-02-01T08:01:25.229Z,19.71
2023-02-01T08:03:56.208Z,19.70
2023-02-01T08:06:23.436Z,19.68
2023-02-01T08:08:50.536Z,19.68
2023-02-01T08:11:17.402Z,19.68
2023-02-01T08:13:44.055Z,19.66
2023-02-01T08:16:11.303Z,19.65
2023-02-01T08:18:38.692Z,19.65
2023-02-01T08:21:06.419Z,19.64
2023-02-01T08:23:33.808Z,19.63
2023-02-01T08:26:07.291Z,19.65
2023-02-01T08:28:33.771Z,19.68
2023-02-01T08:31:00.657Z,19.67
2023-02-01T08:33:27.164Z,19.71
2023-02-01T08:35:53.575Z,19.71
2023-02-01T08:38:19.941Z,19.71
2023-02-01T08:40:47.311Z,19.72
2023-02-01T08:43:13.815Z,19.71
2023-02-01T08:45:40.553Z,19.71
2023-02-01T08:48:07.024Z,19.71
2023-02-01T08:50:33.485Z,19.71
2023-02-01T08:53:00.029Z,19.69
2023-02-01T08:55:27.740Z,19.70
2023-02-01T08:57:54.299Z,19.69
2023-02-01T09:00:21.302Z,19.69
2023-02-01T09:02:48.003Z,19.69
2023-02-01T09:05:17.319Z,19.69
2023-02-01T09:07:43.755Z,19.70
2023-02-01T09:10:10.556Z,19.70
2023-02-01T09:12:37.117Z,19.70
2023-02-01T09:15:03.995Z,19.70
2023-02-01T09:17:31.020Z,19.70
2023-02-01T09:19:57.757Z,19.71
2023-02-01T09:22:24.225Z,19.70
2023-02-01T09:24:50.785Z,19.72
2023-02-01T09:27:17.273Z,19.70
2023-02-01T09:29:43.784Z,19.71
2023-02-01T09:32:10.358Z,19.72
2023-02-01T09:34:37.290Z,19.71
2023-02-01T09:37:03.785Z,19.71
2023-02-01T09:39:33.475Z,19.70
2023-02-01T09:42:16.662Z,19.70
2023-02-01T09:44:52.381Z,19.70
2023-02-01T09:47:20.853Z,19.69
2023-02-01T09:49:55.347Z,19.69
2023-02-01T09:52:37.254Z,19.71
2023-02-01T09:55:13.217Z,19.70
2023-02-01T09:57:39.746Z,19.71
2023-02-01T10:00:10.685Z,19.70
2023-02-01T10:02:39.796Z,19.69
2023-02-01T10:05:06.590Z,19.69
2023-02-01T10:07:42.296Z,19.70
2023-02-01T10:10:29.098Z,19.69
2023-02-01T10:12:55.556Z,19.67
2023-02-01T10:15:25.416Z,19.67
2023-02-01T10:18:04.367Z,19.66
2023-02-01T10:20:40.835Z,19.65
2023-02-01T10:23:33.027Z,19.64
2023-02-01T10:26:21.394Z,19.63
2023-02-01T10:28:59.150Z,19.63
2023-02-01T10:31:27.661Z,19.62
2023-02-01T10:33:57.703Z,19.60
2023-02-01T10:36:31.293Z,19.61
2023-02-01T10:39:01.094Z,19.62
2023-02-01T10:41:33.892Z,19.61
2023-02-01T10:44:01.467Z,19.60
2023-02-01T10:46:28.015Z,19.61
2023-02-01T10:48:56.673Z,19.61
2023-02-01T10:51:46.210Z,19.61
2023-02-01T10:54:17.486Z,19.61
2023-02-01T10:56:45.529Z,19.61
2023-02-01T10:59:19.622Z,19.60
2023-02-01T11:01:48.096Z,19.59
2023-02-01T11:04:16.563Z,19.61
2023-02-01T11:06:47.414Z,19.59
2023-02-01T11:09:23.810Z,19.60
2023-02-01T11:11:50.352Z,19.59
2023-02-01T11:14:16.797Z,19.60
2023-02-01T11:16:47.599Z,19.59
2023-02-01T11:19:15.623Z,19.60
2023-02-01T11:21:42.980Z,19.59
2023-02-01T11:24:16.285Z,19.59
2023-02-01T11:26:43.064Z,19.61
2023-02-01T11:29:14.606Z,19.61
2023-02-01T11:31:43.873Z,19.60
2023-02-01T11:34:14.412Z,19.61
2023-02-01T11:36:41.251Z,19.61
2023-02-01T11:39:13.778Z,19.60
2023-02-01T11:41:44.453Z,19.59
2023-02-01T11:44:24.087Z,19.58
2023-02-01T11:46:50.833Z,19.58
2023-02-01T11:49:20.075Z,19.57
2023-02-01T11:51:52.781Z,19.57
2023-02-01T11:54:28.484Z,19.57
2023-02-01T11:57:25.153Z,19.55
2023-02-01T11:59:56.809Z,19.55
2023-02-01T12:02:42.321Z,19.54
2023-02-01T12:05:29.152Z,19.55
2023-02-01T12:08:13.794Z,19.54
2023-02-01T12:10:59.311Z,19.54
2023-02-01T12:13:28.831Z,19.53
2023-02-01T12:15:55.269Z,19.54
2023-02-01T12:18:41.189Z,19.53
2023-02-01T12:21:07.653Z,19.54
2023-02-01T12:23:40.450Z,19.53
2023-02-01T12:26:34.951Z,19.52
2023-02-01T12:29:20.262Z,19.54
2023-02-01T12:31:56.745Z,19.55
2023-02-01T12:34:26.252Z,19.57
2023-02-01T12:37:02.269Z,19.58
2023-02-01T12:39:34.855Z,19.62
2023-02-01T12:42:01.253Z,19.62
2023-02-01T12:44:27.691Z,19.62
2023-02-01T12:46:57.764Z,19.62
2023-02-01T12:49:26.491Z,19.63
2023-02-01T12:51:55.250Z,19.61
2023-02-01T12:54:54.098Z,19.61
2023-02-01T12:57:28.691Z,19.61
2023-02-01T13:00:16.043Z,19.61
2023-02-01T13:02:43.442Z,19.60
2023-02-01T13:05:16.578Z,19.59
2023-02-01T13:08:03.364Z,19.58
2023-02-01T13:10:47.513Z,19.59
2023-02-01T13:13:23.219Z,19.58
2023-02-01T13:15:49.661Z,19.57
2023-02-01T13:18:19.209Z,19.57
2023-02-01T13:20:53.547Z,19.56
2023-02-01T13:23:30.352Z,19.56
2023-02-01T13:25:56.895Z,19.56
2023-02-01T13:28:42.113Z,19.57
2023-02-01T13:31:23.984Z,19.56
2023-02-01T13:33:56.036Z,19.55
2023-02-01T13:36:23.978Z,19.54
2023-02-01T13:39:02.856Z,19.54
2023-02-01T13:41:36.258Z,19.54
2023-02-01T13:44:07.037Z,19.53
2023-02-01T13:46:44.270Z,19.52
2023-02-01T13:49:20.135Z,19.53
2023-02-01T13:51:49.031Z,19.53
2023-02-01T13:54:35.711Z,19.52
2023-02-01T13:57:03.880Z,19.52
2023-02-01T13:59:42.203Z,19.53
2023-02-01T14:02:27.377Z,19.51
2023-02-01T14:04:53.833Z,19.51
2023-02-01T14:07:22.347Z,19.51
2023-02-01T14:09:49.438Z,19.50
2023-02-01T14:12:34.730Z,19.50
2023-02-01T14:15:23.000Z,19.51
2023-02-01T14:17:49.777Z,19.50
2023-02-01T14:20:35.456Z,19.50
2023-02-01T14:23:04.316Z,19.48
2023-02-01T14:25:34.399Z,19.48
2023-02-01T14:28:02.248Z,19.48
2023-02-01T14:30:28.734Z,19.47
2023-02-01T14:32:55.240Z,19.45
2023-02-01T14:35:25.640Z,19.46
2023-02-01T14:37:54.142Z,19.46
2023-02-01T14:40:24.165Z,19.45
2023-02-01T14:42:55.135Z,19.45
2023-02-01T14:45:24.969Z,19.43
2023-02-01T14:47:56.030Z,19.42
2023-02-01T14:50:25.935Z,19.41
2023-02-01T14:53:10.650Z,19.42
2023-02-01T14:55:42.302Z,19.41
2023-02-01T14:58:20.011Z,19.40
2023-02-01T15:00:52.279Z,19.40
2023-02-01T15:03:25.454Z,19.40
2023-02-01T15:05:59.369Z,19.40
2023-02-01T15:08:31.413Z,19.40
2023-02-01T15:10:59.867Z,19.40
2023-02-01T15:13:28.558Z,19.42
2023-02-01T15:16:02.350Z,19.42
2023-02-01T15:18:29.219Z,19.44
2023-02-01T15:21:06.943Z,19.43
2023-02-01T15:23:49.713Z,19.41
2023-02-01T15:26:26.183Z,19.40
2023-02-01T15:28:52.646Z,19.39
2023-02-01T15:31:32.339Z,19.38
2023-02-01T15:33:59.075Z,19.37
2023-02-01T15:36:28.532Z,19.37
2023-02-01T15:39:13.802Z,19.36
2023-02-01T15:41:41.350Z,19.36
2023-02-01T15:44:19.980Z,19.34
2023-02-01T15:46:48.402Z,19.34
2023-02-01T15:49:25.067Z,19.33
2023-02-01T15:51:51.799Z,19.33
2023-02-01T15:54:25.102Z,19.34
2023-02-01T15:56:53.900Z,19.34
2023-02-01T15:59:21.963Z,19.34
2023-02-01T16:01:48.995Z,19.35
2023-02-01T16:04:15.415Z,19.35
2023-02-01T16:06:53.037Z,19.34
2023-02-01T16:09:21.018Z,19.35
2023-02-01T16:11:54.720Z,19.34
2023-02-01T16:14:21.743Z,19.35
2023-02-01T16:16:48.209Z,19.34
2023-02-01T16:19:14.660Z,19.33
2023-02-01T16:21:41.264Z,19.33
2023-02-01T16:24:07.762Z,19.33
2023-02-01T16:26:34.772Z,19.32
2023-02-01T16:29:04.110Z,19.32
2023-02-01T16:31:31.681Z,19.31
2023-02-01T16:33:58.422Z,19.30
2023-02-01T16:36:25.907Z,19.29
2023-02-01T16:38:54.241Z,19.26
2023-02-01T16:41:21.913Z,19.27
2023-02-01T16:43:52.508Z,19.27
2023-02-01T16:46:25.462Z,19.28
2023-02-01T16:48:56.646Z,19.25
2023-02-01T16:51:24.055Z,19.25
2023-02-01T16:53:54.629Z,19.26
2023-02-01T16:56:22.759Z,19.25
2023-02-01T16:58:49.520Z,19.26
2023-02-01T17:01:17.299Z,19.24
2023-02-01T17:03:47.004Z,19.24
2023-02-01T17:06:16.072Z,19.23
2023-02-01T17:08:43.725Z,19.23
2023-02-01T17:11:11.324Z,19.23
2023-02-01T17:13:37.760Z,19.22
2023-02-01T17:16:06.623Z,19.20
2023-02-01T17:18:34.906Z,19.20
2023-02-01T17:21:02.699Z,19.18
2023-02-01T17:23:30.164Z,19.19
2023-02-01T17:25:57.245Z,19.17
2023-02-01T17:28:23.861Z,19.16
2023-02-01T17:30:50.874Z,19.14
2023-02-01T17:33:28.933Z,19.14
2023-02-01T17:36:03.684Z,19.12
2023-02-01T17:38:30.202Z,19.13
2023-02-01T17:40:56.613Z,19.12
2023-02-01T17:43:24.933Z,19.12
2023-02-01T17:45:54.423Z,19.11
2023-02-01T17:48:21.736Z,19.10
2023-02-01T17:50:54.627Z,19.09
2023-02-01T17:53:25.576Z,19.10
2023-02-01T17:55:52.637Z,19.10
2023-02-01T17:58:19.574Z,19.09
2023-02-01T18:00:47.453Z,19.07
2023-02-01T18:03:35.664Z,19.06
2023-02-01T18:06:02.497Z,19.06
2023-02-01T18:08:29.774Z,19.05
2023-02-01T18:10:59.858Z,19.04
2023-02-01T18:13:26.853Z,19.05
2023-02-01T18:15:53.275Z,19.05
2023-02-01T18:18:19.714Z,19.04
2023-02-01T18:20:46.811Z,19.04
2023-02-01T18:23:14.970Z,19.03
2023-02-01T18:25:41.463Z,19.03
2023-02-01T18:28:07.811Z,19.03
2023-02-01T18:30:34.538Z,19.02
2023-02-01T18:33:14.996Z,19.02
2023-02-01T18:35:41.411Z,19.01
2023-02-01T18:38:07.866Z,19.01
2023-02-01T18:40:36.160Z,19.02
2023-02-01T18:43:03.198Z,19.02
2023-02-01T18:45:40.098Z,19.01
2023-02-01T18:48:07.370Z,19.01
2023-02-01T18:50:35.467Z,19.00
2023-02-01T18:53:02.612Z,19.00
2023-02-01T18:55:29.708Z,19.00
2023-02-01T18:57:56.188Z,19.00
2023-02-01T19:00:22.725Z,18.99
2023-02-01T19:02:49.601Z,19.01
2023-02-01T19:05:16.488Z,19.02
2023-02-01T19:07:43.495Z,19.02
2023-02-01T19:10:14.854Z,19.01
2023-02-01T19:12:41.407Z,19.02
2023-02-01T19:15:08.715Z,19.01
2023-02-01T19:17:35.279Z,19.01
2023-02-01T19:20:01.873Z,19.02
2023-02-01T19:22:28.321Z,19.02
2023-02-01T19:24:55.109Z,19.04
2023-02-01T19:27:21.802Z,19.03
2023-02-01T19:29:48.336Z,19.04
2023-02-01T19:32:15.098Z,19.04
2023-02-01T19:34:41.657Z,19.05
2023-02-01T19:37:08.115Z,19.04
2023-02-01T19:39:34.653Z,19.03
2023-02-01T19:42:03.300Z,19.04
2023-02-01T19:44:30.287Z,19.03
2023-02-01T19:46:56.691Z,19.04
2023-02-01T19:49:23.156Z,19.04
2023-02-01T19:51:49.549Z,19.03
2023-02-01T19:54:16.602Z,19.03
2023-02-01T19:56:44.433Z,19.02
2023-02-01T19:59:11.712Z,19.03
2023-02-01T20:01:38.177Z,19.03
2023-02-01T20:04:06.471Z,19.02
2023-02-01T20:06:34.204Z,19.03
2023-02-01T20:09:00.740Z,19.03
2023-02-01T20:11:27.286Z,19.02
2023-02-01T20:13:54.490Z,19.01
2023-02-01T20:16:21.488Z,19.02
2023-02-01T20:18:48.624Z,19.00
2023-02-01T20:21:15.644Z,19.02
2023-02-01T20:23:42.190Z,19.01
2023-02-01T20:26:11.394Z,19.02
2023-02-01T20:28:38.509Z,19.02
2023-02-01T20:31:05.597Z,19.03
2023-02-01T20:33:32.230Z,19.03
2023-02-01T20:35:58.853Z,19.02
2023-02-01T20:38:25.802Z,19.02
2023-02-01T20:40:52.578Z,19.02
2023-02-01T20:43:19.058Z,19.02
2023-02-01T20:45:45.417Z,19.01
2023-02-01T20:48:12.360Z,19.02
2023-02-01T20:50:38.862Z,19.02
2023-02-01T20:53:05.315Z,19.02
2023-02-01T20:55:31.810Z,19.01
2023-02-01T20:57:58.242Z,19.01
2023-02-01T21:00:24.757Z,19.00
2023-02-01T21:02:51.351Z,19.01
2023-02-01T21:05:17.848Z,19.01
2023-02-01T21:07:45.060Z,19.01
2023-02-01T21:10:11.788Z,19.01
2023-02-01T21:12:38.490Z,19.01
2023-02-01T21:15:05.257Z,19.01
2023-02-01T21:17:32.213Z,19.02
2023-02-01T21:19:58.977Z,19.02
2023-02-01T21:22:25.494Z,19.02
2023-02-01T21:24:51.953Z,18.99
2023-02-01T21:27:18.337Z,19.03
2023-02-01T21:29:44.759Z,19.03
2023-02-01T21:32:11.221Z,19.03
2023-02-01T21:34:37.564Z,19.02
2023-02-01T21:37:03.930Z,19.02
2023-02-01T21:39:30.466Z,19.02
2023-02-01T21:42:14.868Z,19.02
2023-02-01T21:44:41.691Z,19.03
2023-02-01T21:47:09.547Z,19.02
2023-02-01T21:49:36.062Z,19.02
2023-02-01T21:52:02.579Z,19.04
2023-02-01T21:54:29.037Z,19.03
2023-02-01T21:56:55.497Z,19.05
2023-02-01T21:59:22.066Z,19.06
2023-02-01T22:01:48.447Z,19.05
2023-02-01T22:04:14.873Z,19.04
2023-02-01T22:06:43.343Z,19.04
2023-02-01T22:09:18.202Z,19.04
2023-02-01T22:11:45.154Z,19.03
2023-02-01T22:14:12.226Z,19.04
2023-02-01T22:16:38.995Z,19.03
2023-02-01T22:19:05.526Z,19.04
2023-02-01T22:21:32.034Z,19.05
2023-02-01T22:24:01.864Z,19.03
2023-02-01T22:26:28.358Z,19.04
2023-02-01T22:28:54.956Z,19.03
2023-02-01T22:31:21.890Z,19.02
2023-02-01T22:33:49.243Z,19.03
2023-02-01T22:36:19.740Z,19.03
2023-02-01T22:38:46.847Z,19.04
2023-02-01T22:41:13.500Z,19.04
2023-02-01T22:43:40.221Z,19.04
2023-02-01T22:46:08.317Z,19.01
2023-02-01T22:48:36.090Z,19.01
2023-02-01T22:51:03.599Z,19.01
2023-02-01T22:53:30.905Z,19.01
2023-02-01T22:56:01.203Z,19.01
2023-02-01T22:58:27.583Z,19.02
2023-02-01T23:00:54.008Z,19.03
2023-02-01T23:03:20.523Z,19.03
2023-02-01T23:05:47.038Z,19.03
2023-02-01T23:08:13.457Z,19.03
2023-02-01T23:10:39.927Z,19.05
2023-02-01T23:13:06.346Z,19.08
2023-02-01T23:15:32.844Z,19.09
2023-02-01T23:17:59.348Z,19.10
2023-02-01T23:20:25.862Z,19.12
2023-02-01T23:22:52.243Z,19.14
2023-02-01T23:25:18.665Z,19.14
2023-02-01T23:27:45.758Z,19.15
2023-02-01T23:30:12.437Z,19.16
2023-02-01T23:32:38.912Z,19.16
2023-02-01T23:35:05.834Z,19.17
2023-02-01T23:37:32.215Z,19.18
2023-02-01T23:39:58.647Z,19.20
2023-02-01T23:42:25.113Z,19.19
2023-02-01T23:44:51.527Z,19.19
2023-02-01T23:47:17.946Z,19.20
2023-02-01T23:49:45.588Z,19.20
2023-02-01T23:52:12.249Z,19.20
2023-02-01T23:54:38.708Z,19.21
2023-02-01T23:57:05.111Z,19.21
2023-02-01T23:59:31.625Z,19.22
